Time;durP1;ratioP1;P1;durP2;ratioP2;P2;SDS_P1;SDS_P2;PMS_P1;PMS_P2;Temp;Humidity;BMP_temperature;BMP_pressure;BME280_temperature;BME280_humidity;BME280_pressure;Samples;Min_cycle;Max_cycle;Signal;HPM_P1;HPM_P2
2022/04/24 00:00:41;;;;;;;26.02;17.42;;;;;;;-143.53;100.00;58366.03;2073425;28;20217;-63
2022/04/24 00:01:42;;;;;;;28.50;18.38;;;;;;;-143.53;100.00;58366.03;2084781;28;20197;-63
2022/04/24 00:02:45;;;;;;;28.63;17.52;;;;;;;-143.53;100.00;58366.03;2084819;28;20213;-63
2022/04/24 00:03:48;;;;;;;32.10;19.40;;;;;;;-143.53;100.00;58366.03;2086168;28;20211;-63
2022/04/24 00:04:56;;;;;;;32.22;18.52;;;;;;;-143.53;100.00;58366.03;2085153;28;20204;-63
2022/04/24 00:05:57;;;;;;;30.98;18.67;;;;;;;-143.53;100.00;58366.03;2085080;28;20235;-63
2022/04/24 00:06:59;;;;;;;27.38;18.20;;;;;;;-143.53;100.00;58366.03;2084645;28;20200;-63
2022/04/24 00:08:01;;;;;;;26.98;17.65;;;;;;;-143.53;100.00;58366.03;2084315;28;20200;-63
2022/04/24 00:09:02;;;;;;;27.20;18.02;;;;;;;-143.53;100.00;58366.03;2084006;28;20687;-63
2022/04/24 00:10:05;;;;;;;28.60;18.08;;;;;;;-143.53;100.00;58366.03;2083147;28;20197;-63
2022/04/24 00:11:06;;;;;;;27.35;17.38;;;;;;;-143.53;100.00;58366.03;2082508;28;20216;-63
2022/04/24 00:12:15;;;;;;;25.98;17.40;;;;;;;-143.53;100.00;58366.03;2082103;28;20197;-63
2022/04/24 00:13:17;;;;;;;28.45;16.80;;;;;;;-143.53;100.00;58366.03;2087194;28;20200;-63
2022/04/24 00:14:19;;;;;;;23.73;16.42;;;;;;;-143.53;100.00;58366.03;2087398;28;20203;-63
2022/04/24 00:15:21;;;;;;;29.20;17.60;;;;;;;-143.53;100.00;58366.03;2086130;28;20202;-63
2022/04/24 00:16:22;;;;;;;26.23;16.52;;;;;;;-143.53;100.00;58366.03;2079322;28;20538;-64
2022/04/24 00:17:24;;;;;;;28.50;18.30;;;;;;;-143.53;100.00;58366.03;2079421;28;20208;-63
2022/04/24 00:18:25;;;;;;;27.20;16.23;;;;;;;-143.53;100.00;58366.03;2086193;28;20206;-64
2022/04/24 00:19:27;;;;;;;29.77;17.30;;;;;;;-143.53;100.00;58366.03;2086417;28;20199;-64
2022/04/24 00:20:29;;;;;;;25.45;16.55;;;;;;;-143.53;100.00;58366.03;2084113;28;20234;-63
2022/04/24 00:21:31;;;;;;;27.20;17.00;;;;;;;-143.53;100.00;58366.03;2084560;28;20202;-63
2022/04/24 00:22:32;;;;;;;30.65;18.05;;;;;;;-143.53;100.00;58366.03;2084811;28;20314;-64
2022/04/24 00:23:34;;;;;;;27.42;16.23;;;;;;;-143.53;100.00;58366.03;2084891;28;20196;-63
2022/04/24 00:24:36;;;;;;;25.70;16.15;;;;;;;-143.53;100.00;58366.03;2084847;28;20200;-63
2022/04/24 00:25:38;;;;;;;27.50;16.48;;;;;;;-143.53;100.00;58366.03;2084165;28;20200;-63
2022/04/24 00:26:40;;;;;;;22.90;15.95;;;;;;;-143.53;100.00;58366.03;2082852;28;20197;-63
2022/04/24 00:27:41;;;;;;;26.25;15.93;;;;;;;-143.53;100.00;58366.03;2085138;28;20192;-64
2022/04/24 00:28:42;;;;;;;23.45;15.30;;;;;;;-143.53;100.00;58366.03;2084985;28;20690;-63
2022/04/24 00:29:44;;;;;;;24.10;15.32;;;;;;;-143.53;100.00;58366.03;2087161;28;20200;-64
2022/04/24 00:30:45;;;;;;;28.85;16.15;;;;;;;-143.53;100.00;58366.03;2082838;28;20216;-63
2022/04/24 00:31:47;;;;;;;22.50;14.88;;;;;;;-143.53;100.00;58366.03;2088638;28;20199;-63
2022/04/24 00:32:49;;;;;;;23.95;15.40;;;;;;;-143.53;100.00;58366.03;2083453;28;20200;-63
2022/04/24 00:33:50;;;;;;;26.67;17.40;;;;;;;-143.53;100.00;58366.03;2082688;28;20315;-63
2022/04/24 00:34:52;;;;;;;24.40;15.75;;;;;;;-143.53;100.00;58366.03;2082951;28;20200;-63
2022/04/24 00:35:53;;;;;;;22.23;15.73;;;;;;;-143.53;100.00;58366.03;2083449;28;20228;-63
2022/04/24 00:36:55;;;;;;;24.05;16.77;;;;;;;-143.53;100.00;58366.03;2086319;28;20201;-64
2022/04/24 00:37:57;;;;;;;22.95;15.38;;;;;;;-143.53;100.00;58366.03;2085982;28;20205;-63
2022/04/24 00:38:58;;;;;;;23.20;15.60;;;;;;;-143.53;100.00;58366.03;2080889;28;20189;-63
2022/04/24 00:40:00;;;;;;;26.85;16.83;;;;;;;-143.53;100.00;58366.03;2081040;28;20208;-64
2022/04/24 00:41:03;;;;;;;22.17;15.52;;;;;;;-143.53;100.00;58366.03;2085432;28;20231;-63
2022/04/24 00:42:08;;;;;;;23.23;15.18;;;;;;;-143.53;100.00;58366.03;2088147;28;20206;-63
2022/04/24 00:43:09;;;;;;;22.08;14.50;;;;;;;-143.53;100.00;58366.03;2086347;28;20219;-63
2022/04/24 00:44:11;;;;;;;20.80;14.40;;;;;;;-143.53;100.00;58366.03;2087208;28;20561;-63
2022/04/24 00:45:12;;;;;;;26.02;15.70;;;;;;;-143.53;100.00;58366.03;2084333;28;20364;-63
2022/04/24 00:46:28;;;;;;;21.60;14.18;;;;;;;-143.53;100.00;58366.03;2084542;28;20232;-63
2022/04/24 00:47:32;;;;;;;23.85;14.88;;;;;;;-143.53;100.00;58366.03;2084931;28;20192;-63
2022/04/24 00:48:34;;;;;;;20.90;14.02;;;;;;;-143.53;100.00;58366.03;2086633;28;20203;-63
2022/04/24 00:49:45;;;;;;;21.27;14.30;;;;;;;-143.53;100.00;58366.03;2083971;28;20555;-63
2022/04/24 00:50:47;;;;;;;22.05;14.70;;;;;;;-143.53;100.00;58366.03;2082158;28;20225;-63
2022/04/24 00:51:48;;;;;;;21.83;15.13;;;;;;;-143.53;100.00;58366.03;2086357;28;20231;-63
2022/04/24 00:52:50;;;;;;;23.52;15.25;;;;;;;-143.53;100.00;58366.03;2084576;28;20200;-63
2022/04/24 00:53:53;;;;;;;22.58;14.90;;;;;;;-143.53;100.00;58366.03;2085918;28;20200;-63
2022/04/24 00:54:54;;;;;;;25.17;15.90;;;;;;;-143.53;100.00;58366.03;2085593;28;20726;-63
2022/04/24 00:55:56;;;;;;;25.35;16.13;;;;;;;-143.53;100.00;58366.03;2084416;28;20231;-63
2022/04/24 00:56:58;;;;;;;23.17;14.85;;;;;;;-143.53;100.00;58366.03;2085987;28;20201;-63
2022/04/24 00:57:59;;;;;;;23.65;14.85;;;;;;;-143.53;100.00;58366.03;2088522;28;20235;-63
2022/04/24 00:59:04;;;;;;;22.85;15.85;;;;;;;-143.53;100.00;58366.03;2086651;28;20602;-63
2022/04/24 01:00:07;;;;;;;24.83;15.95;;;;;;;-143.53;100.00;58366.03;2080453;28;20207;-63
2022/04/24 01:01:09;;;;;;;21.70;14.77;;;;;;;-143.53;100.00;58366.03;2079693;28;20227;-63
2022/04/24 01:02:11;;;;;;;23.80;15.70;;;;;;;-143.53;100.00;58366.03;2084687;28;20205;-63
2022/04/24 01:03:13;;;;;;;19.80;14.35;;;;;;;-143.53;100.00;58366.03;2085200;28;20213;-63
2022/04/24 01:04:18;;;;;;;21.95;15.23;;;;;;;-143.53;100.00;58366.03;2085505;28;20637;-63
2022/04/24 01:05:19;;;;;;;24.02;14.55;;;;;;;-143.53;100.00;58366.03;2085786;28;20208;-63
2022/04/24 01:06:21;;;;;;;21.75;13.75;;;;;;;-143.53;100.00;58366.03;2074395;28;20219;-63
2022/04/24 01:07:23;;;;;;;22.00;14.73;;;;;;;-143.53;100.00;58366.03;2085958;28;20192;-63
2022/04/24 01:08:24;;;;;;;18.98;13.80;;;;;;;-143.53;100.00;58366.03;2087397;28;20199;-64
2022/04/24 01:09:26;;;;;;;17.65;13.07;;;;;;;-143.53;100.00;58366.03;2087766;28;20215;-64
2022/04/24 01:10:27;;;;;;;20.90;14.88;;;;;;;-143.53;100.00;58366.03;2086619;28;20205;-64
2022/04/24 01:11:29;;;;;;;23.48;15.73;;;;;;;-143.53;100.00;58366.03;2086095;28;20201;-64
2022/04/24 01:12:30;;;;;;;24.13;15.65;;;;;;;-143.53;100.00;58366.03;2085388;28;20199;-64
2022/04/24 01:13:32;;;;;;;24.05;15.38;;;;;;;-143.53;100.00;58366.03;2086481;28;20196;-64
2022/04/24 01:14:34;;;;;;;22.35;14.50;;;;;;;-143.53;100.00;58366.03;2084457;28;20541;-63
2022/04/24 01:15:36;;;;;;;23.77;14.95;;;;;;;-143.53;100.00;58366.03;2085656;28;20201;-64
2022/04/24 01:16:38;;;;;;;24.20;14.77;;;;;;;-143.53;100.00;58366.03;2083673;28;20293;-64
2022/04/24 01:17:40;;;;;;;21.90;15.73;;;;;;;-143.53;100.00;58366.03;2085287;28;20199;-64
2022/04/24 01:18:43;;;;;;;23.90;13.95;;;;;;;-143.53;100.00;58366.03;2084506;28;20691;-64
2022/04/24 01:19:44;;;;;;;20.95;15.02;;;;;;;-143.53;100.00;58366.03;2080158;28;20204;-64
2022/04/24 01:20:46;;;;;;;24.17;14.52;;;;;;;-143.53;100.00;58366.03;2080261;28;20224;-64
2022/04/24 01:21:49;;;;;;;22.30;14.50;;;;;;;-143.53;100.00;58366.03;2086255;28;20204;-64
2022/04/24 01:22:50;;;;;;;19.73;14.13;;;;;;;-143.53;100.00;58366.03;2084864;28;20274;-64
2022/04/24 01:23:52;;;;;;;23.80;16.60;;;;;;;-143.53;100.00;58366.03;2086000;28;20677;-64
2022/04/24 01:24:53;;;;;;;24.75;16.30;;;;;;;-143.53;100.00;58366.03;2087766;28;20196;-64
2022/04/24 01:25:55;;;;;;;27.35;16.92;;;;;;;-143.53;100.00;58366.03;2085367;28;20711;-64
2022/04/24 01:26:57;;;;;;;23.52;15.70;;;;;;;-143.53;100.00;58366.03;2084654;28;20201;-64
2022/04/24 01:27:58;;;;;;;29.08;16.60;;;;;;;-143.53;100.00;58366.03;2085889;28;20203;-64
2022/04/24 01:29:01;;;;;;;25.70;16.08;;;;;;;-143.53;100.00;58366.03;2085527;28;20711;-64
2022/04/24 01:30:04;;;;;;;24.77;16.95;;;;;;;-143.53;100.00;58366.03;2085653;28;20231;-64
2022/04/24 01:31:06;;;;;;;24.60;15.52;;;;;;;-143.53;100.00;58366.03;2085634;28;20619;-64
2022/04/24 01:32:08;;;;;;;25.27;15.93;;;;;;;-143.53;100.00;58366.03;2087540;28;20200;-64
2022/04/24 01:33:09;;;;;;;32.28;20.08;;;;;;;-143.53;100.00;58366.03;2087762;28;20195;-64
2022/04/24 01:34:12;;;;;;;28.58;17.50;;;;;;;-143.53;100.00;58366.03;2087286;28;20663;-64
2022/04/24 01:35:15;;;;;;;27.17;16.90;;;;;;;-143.53;100.00;58366.03;2086040;28;20570;-66
2022/04/24 01:36:16;;;;;;;23.08;17.33;;;;;;;-143.53;100.00;58366.03;2086247;28;20698;-67
2022/04/24 01:37:18;;;;;;;26.27;17.75;;;;;;;-143.53;100.00;58366.03;2086066;28;20200;-67
2022/04/24 01:38:20;;;;;;;29.38;17.10;;;;;;;-143.53;100.00;58366.03;2083534;28;20197;-67
2022/04/24 01:39:22;;;;;;;27.17;16.92;;;;;;;-143.53;100.00;58366.03;2088329;28;20197;-67
2022/04/24 01:40:25;;;;;;;26.50;17.52;;;;;;;-143.53;100.00;58366.03;2087120;28;20556;-66
2022/04/24 01:41:26;;;;;;;27.50;16.33;;;;;;;-143.53;100.00;58366.03;2083536;28;20197;-67
2022/04/24 01:42:27;;;;;;;23.67;16.92;;;;;;;-143.53;100.00;58366.03;2086020;28;20207;-66
2022/04/24 01:43:29;;;;;;;28.98;16.63;;;;;;;-143.53;100.00;58366.03;2084775;28;20200;-67
2022/04/24 01:44:30;;;;;;;27.52;16.33;;;;;;;-143.53;100.00;58366.03;2084563;28;20211;-67
2022/04/24 01:45:32;;;;;;;24.08;16.17;;;;;;;-143.53;100.00;58366.03;2085624;28;20553;-66
2022/04/24 01:46:33;;;;;;;24.88;16.73;;;;;;;-143.53;100.00;58366.03;2085903;28;20197;-67
2022/04/24 01:47:35;;;;;;;33.42;17.48;;;;;;;-143.53;100.00;58366.03;2086608;28;20196;-67
2022/04/24 01:48:37;;;;;;;23.98;16.10;;;;;;;-143.53;100.00;58366.03;2086361;28;20666;-67
2022/04/24 01:49:39;;;;;;;22.98;15.57;;;;;;;-143.53;100.00;58366.03;2086557;28;20205;-67
2022/04/24 01:50:40;;;;;;;26.55;17.17;;;;;;;-143.53;100.00;58366.03;2086291;28;20236;-67
2022/04/24 01:51:43;;;;;;;25.08;16.70;;;;;;;-143.53;100.00;58366.03;2087572;28;20196;-67
2022/04/24 01:52:45;;;;;;;24.17;16.73;;;;;;;-143.53;100.00;58366.03;2084078;28;20203;-67
2022/04/24 01:53:47;;;;;;;24.50;16.15;;;;;;;-143.53;100.00;58366.03;2083575;28;20195;-67
2022/04/24 01:54:48;;;;;;;24.38;15.10;;;;;;;-143.53;100.00;58366.03;2085737;28;20197;-67
2022/04/24 01:55:50;;;;;;;21.98;15.32;;;;;;;-143.53;100.00;58366.03;2086505;28;20281;-67
2022/04/24 01:56:51;;;;;;;25.10;16.27;;;;;;;-143.53;100.00;58366.03;2086332;28;20199;-67
2022/04/24 01:57:53;;;;;;;27.33;16.05;;;;;;;-143.53;100.00;58366.03;2083472;28;20197;-66
2022/04/24 01:58:54;;;;;;;22.90;14.82;;;;;;;-143.53;100.00;58366.03;2086182;28;20699;-67
2022/04/24 01:59:56;;;;;;;22.73;15.75;;;;;;;-143.53;100.00;58366.03;2086679;28;20197;-67
2022/04/24 02:00:58;;;;;;;23.63;15.73;;;;;;;-143.53;100.00;58366.03;2084176;28;20220;-66
2022/04/24 02:01:59;;;;;;;24.70;15.70;;;;;;;-143.53;100.00;58366.03;2085725;28;20203;-67
2022/04/24 02:03:01;;;;;;;25.85;15.35;;;;;;;-143.53;100.00;58366.03;2083705;28;20284;-67
2022/04/24 02:04:03;;;;;;;24.05;15.40;;;;;;;-143.53;100.00;58366.03;2083890;28;20209;-67
2022/04/24 02:05:05;;;;;;;22.42;16.90;;;;;;;-143.53;100.00;58366.03;2083837;28;20193;-67
2022/04/24 02:06:07;;;;;;;26.85;17.83;;;;;;;-143.53;100.00;58366.03;2078918;28;20719;-66
2022/04/24 02:07:08;;;;;;;24.13;16.20;;;;;;;-143.53;100.00;58366.03;2080379;28;20207;-66
2022/04/24 02:08:10;;;;;;;22.90;15.65;;;;;;;-143.53;100.00;58366.03;2085466;28;20208;-67
2022/04/24 02:09:11;;;;;;;26.02;17.40;;;;;;;-143.53;100.00;58366.03;2087343;28;20197;-66
2022/04/24 02:10:13;;;;;;;25.92;17.02;;;;;;;-143.53;100.00;58366.03;2085047;28;20197;-66
2022/04/24 02:11:14;;;;;;;31.77;17.90;;;;;;;-143.53;100.00;58366.03;2086950;28;20253;-67
2022/04/24 02:12:15;;;;;;;26.08;17.52;;;;;;;-143.53;100.00;58366.03;2083271;28;20185;-67
2022/04/24 02:13:17;;;;;;;27.60;18.23;;;;;;;-143.53;100.00;58366.03;2086420;28;20199;-67
2022/04/24 02:14:19;;;;;;;27.70;18.25;;;;;;;-143.53;100.00;58366.03;2086598;28;20283;-68
2022/04/24 02:15:21;;;;;;;30.25;18.75;;;;;;;-143.53;100.00;58366.03;2084186;28;20203;-68
2022/04/24 02:16:22;;;;;;;31.23;17.38;;;;;;;-143.53;100.00;58366.03;2082735;28;20201;-69
2022/04/24 02:17:24;;;;;;;34.55;17.02;;;;;;;-143.53;100.00;58366.03;2083813;28;20231;-70
2022/04/24 02:18:26;;;;;;;24.52;14.88;;;;;;;-143.53;100.00;58366.03;2086696;28;20209;-69
2022/04/24 02:19:27;;;;;;;28.40;17.17;;;;;;;-143.53;100.00;58366.03;2086244;28;20204;-69
2022/04/24 02:20:33;;;;;;;24.23;16.88;;;;;;;-143.53;100.00;58366.03;2083613;28;20198;-67
2022/04/24 02:21:37;;;;;;;27.92;17.60;;;;;;;-143.53;100.00;58366.03;2089263;28;20234;-72
2022/04/24 02:22:38;;;;;;;28.23;17.00;;;;;;;-143.53;100.00;58366.03;2076611;28;20692;-73
2022/04/24 02:23:40;;;;;;;28.17;18.10;;;;;;;-143.53;100.00;58366.03;2080115;28;20208;-73
2022/04/24 02:24:41;;;;;;;26.20;17.92;;;;;;;-143.53;100.00;58366.03;2083489;28;20197;-73
2022/04/24 02:25:43;;;;;;;27.83;18.27;;;;;;;-143.53;100.00;58366.03;2083200;28;20240;-73
2022/04/24 02:26:45;;;;;;;36.20;18.45;;;;;;;-143.53;100.00;58366.03;2084789;28;20195;-73
2022/04/24 02:27:47;;;;;;;24.02;17.00;;;;;;;-143.53;100.00;58366.03;2084653;28;20204;-73
2022/04/24 02:28:48;;;;;;;31.67;18.23;;;;;;;-143.53;100.00;58366.03;2085240;28;20204;-73
2022/04/24 02:29:50;;;;;;;24.63;17.55;;;;;;;-143.53;100.00;58366.03;2085240;28;20197;-73
2022/04/24 02:30:52;;;;;;;30.08;18.20;;;;;;;-143.53;100.00;58366.03;2074403;28;20229;-72
2022/04/24 02:31:53;;;;;;;28.85;18.15;;;;;;;-143.53;100.00;58366.03;2077428;28;20726;-72
2022/04/24 02:32:59;;;;;;;28.83;18.50;;;;;;;-143.53;100.00;58366.03;2084847;28;20197;-73
2022/04/24 02:34:01;;;;;;;34.08;19.20;;;;;;;-143.53;100.00;58366.03;2084228;28;20201;-72
2022/04/24 02:35:03;;;;;;;29.38;18.00;;;;;;;-143.53;100.00;58366.03;2084878;28;20192;-72
2022/04/24 02:36:04;;;;;;;29.20;18.60;;;;;;;-143.53;100.00;58366.03;2084296;28;20220;-72
2022/04/24 02:37:06;;;;;;;32.10;19.92;;;;;;;-143.53;100.00;58366.03;2086764;28;20212;-72
2022/04/24 02:38:07;;;;;;;27.48;17.90;;;;;;;-143.53;100.00;58366.03;2085940;28;20231;-71
2022/04/24 02:39:09;;;;;;;24.00;16.75;;;;;;;-143.53;100.00;58366.03;2084123;28;20210;-73
2022/04/24 02:40:11;;;;;;;28.20;18.35;;;;;;;-143.53;100.00;58366.03;2085338;28;20235;-73
2022/04/24 02:41:12;;;;;;;32.45;18.13;;;;;;;-143.53;100.00;58366.03;2075207;28;20785;-74
2022/04/24 02:42:14;;;;;;;33.03;19.40;;;;;;;-143.53;100.00;58366.03;2075425;28;20698;-74
2022/04/24 02:43:15;;;;;;;28.20;18.40;;;;;;;-143.53;100.00;58366.03;2084716;28;20208;-74
2022/04/24 02:44:17;;;;;;;27.58;19.30;;;;;;;-143.53;100.00;58366.03;2085238;28;20208;-74
2022/04/24 02:45:19;;;;;;;29.88;19.80;;;;;;;-143.53;100.00;58366.03;2084887;28;20644;-73
2022/04/24 02:46:21;;;;;;;31.35;18.15;;;;;;;-143.53;100.00;58366.03;2068905;28;20197;-73
2022/04/24 02:47:22;;;;;;;25.52;18.08;;;;;;;-143.53;100.00;58366.03;2079504;28;20200;-72
2022/04/24 02:48:27;;;;;;;27.60;18.70;;;;;;;-143.53;100.00;58366.03;2085144;28;20215;-72
2022/04/24 02:49:29;;;;;;;30.85;18.83;;;;;;;-143.53;100.00;58366.03;2085960;28;20286;-71
2022/04/24 02:50:30;;;;;;;27.42;17.48;;;;;;;-143.53;100.00;58366.03;2082333;28;20200;-70
2022/04/24 02:51:32;;;;;;;29.38;17.45;;;;;;;-143.53;100.00;58366.03;2083335;28;20204;-71
2022/04/24 02:52:47;;;;;;;29.77;18.52;;;;;;;-143.53;100.00;58366.03;2084344;28;20207;-71
2022/04/24 02:53:49;;;;;;;27.25;17.42;;;;;;;-143.53;100.00;58366.03;2085530;28;20223;-72
2022/04/24 02:54:50;;;;;;;32.33;20.70;;;;;;;-143.53;100.00;58366.03;2085008;28;20194;-71
2022/04/24 02:55:52;;;;;;;29.52;19.80;;;;;;;-143.53;100.00;58366.03;2084124;28;20228;-71
2022/04/24 02:56:53;;;;;;;32.38;18.58;;;;;;;-143.53;100.00;58366.03;2084902;28;20548;-71
2022/04/24 02:57:55;;;;;;;28.05;19.38;;;;;;;-143.53;100.00;58366.03;2085673;28;20198;-72
2022/04/24 02:58:56;;;;;;;28.98;19.35;;;;;;;-143.53;100.00;58366.03;2087462;28;20200;-71
2022/04/24 02:59:58;;;;;;;27.95;18.08;;;;;;;-143.53;100.00;58366.03;2085914;28;20222;-71
2022/04/24 03:00:59;;;;;;;26.58;17.45;;;;;;;-143.53;100.00;58366.03;2082571;28;20223;-71
2022/04/24 03:02:01;;;;;;;29.20;18.85;;;;;;;-143.53;100.00;58366.03;2081441;28;20199;-72
2022/04/24 03:03:02;;;;;;;27.75;18.83;;;;;;;-143.53;100.00;58366.03;2082023;28;20691;-71
2022/04/24 03:04:04;;;;;;;27.70;18.00;;;;;;;-143.53;100.00;58366.03;2078501;28;20212;-71
2022/04/24 03:05:08;;;;;;;30.67;18.58;;;;;;;-143.53;100.00;58366.03;2079696;28;20197;-71
2022/04/24 03:06:09;;;;;;;28.70;18.60;;;;;;;-143.53;100.00;58366.03;2084469;28;20234;-71
2022/04/24 03:07:11;;;;;;;27.48;18.90;;;;;;;-143.53;100.00;58366.03;2085670;28;20199;-71
2022/04/24 03:08:13;;;;;;;24.00;17.38;;;;;;;-143.53;100.00;58366.03;2085722;28;20210;-71
2022/04/24 03:09:15;;;;;;;25.77;17.58;;;;;;;-143.53;100.00;58366.03;2086015;28;20192;-71
2022/04/24 03:10:17;;;;;;;28.20;18.80;;;;;;;-143.53;100.00;58366.03;2084081;28;20193;-71
2022/04/24 03:11:24;;;;;;;28.25;17.75;;;;;;;7.69;96.66;94654.50;2115413;27;20843;-69
2022/04/24 03:12:29;;;;;;;30.60;19.10;;;;;;;7.83;97.17;94673.31;2113434;28;20190;-68
2022/04/24 03:13:31;;;;;;;32.00;18.48;;;;;;;7.80;96.99;94670.97;2107331;28;20195;-68
2022/04/24 03:14:32;;;;;;;25.92;17.63;;;;;;;7.78;96.82;94655.50;2106424;28;20199;-69
2022/04/24 03:15:33;;;;;;;27.92;17.92;;;;;;;7.79;96.61;94674.53;2104647;28;20519;-68
2022/04/24 03:16:35;;;;;;;29.65;19.10;;;;;;;7.80;96.71;94668.34;2090689;28;20201;-69
2022/04/24 03:17:37;;;;;;;27.98;18.42;;;;;;;7.81;96.50;94673.44;2091148;28;20195;-69
2022/04/24 03:18:38;;;;;;;26.77;18.27;;;;;;;7.78;96.83;94670.28;2093155;28;20272;-69
2022/04/24 03:19:40;;;;;;;25.10;17.45;;;;;;;7.79;97.01;94677.97;2091106;28;20201;-69
2022/04/24 03:20:41;;;;;;;28.20;19.10;;;;;;;7.71;97.36;94655.19;2077795;28;20234;-69
2022/04/24 03:21:43;;;;;;;28.30;17.38;;;;;;;7.75;96.66;94653.13;2086065;28;20618;-69
2022/04/24 03:22:44;;;;;;;28.98;17.25;;;;;;;7.84;96.99;94670.59;2090836;28;20215;-69
2022/04/24 03:23:46;;;;;;;25.02;16.60;;;;;;;7.70;97.44;94652.72;2090430;28;20231;-69
2022/04/24 03:24:49;;;;;;;26.25;18.50;;;;;;;7.74;97.83;94664.50;2092097;28;20194;-69
2022/04/24 03:25:51;;;;;;;28.63;17.40;;;;;;;7.75;97.67;94666.16;2091549;28;20216;-69
2022/04/24 03:26:52;;;;;;;28.15;18.00;;;;;;;7.71;97.68;94668.22;2089890;28;20199;-69
2022/04/24 03:27:54;;;;;;;31.98;20.33;;;;;;;7.71;97.82;94672.63;2090748;28;20234;-69
2022/04/24 03:28:57;;;;;;;30.75;18.20;;;;;;;7.79;97.42;94671.94;2090902;28;20694;-69
2022/04/24 03:29:58;;;;;;;28.17;19.00;;;;;;;7.72;97.49;94667.28;2090322;28;20203;-69
2022/04/24 03:31:00;;;;;;;30.23;18.17;;;;;;;7.72;97.44;94667.28;2089746;28;20247;-69
2022/04/24 03:32:02;;;;;;;27.33;17.77;;;;;;;7.73;97.75;94668.09;2093690;28;20211;-69
2022/04/24 03:33:03;;;;;;;31.63;18.73;;;;;;;7.69;98.12;94664.94;2093813;28;20232;-69
2022/04/24 03:34:06;;;;;;;23.65;16.98;;;;;;;7.77;97.61;94671.25;2092191;28;20638;-68
2022/04/24 03:35:09;;;;;;;27.85;19.35;;;;;;;7.82;97.73;94672.50;2092849;28;20651;-68
2022/04/24 03:36:11;;;;;;;27.77;18.65;;;;;;;7.84;97.45;94672.34;2092111;28;20766;-68
2022/04/24 03:37:12;;;;;;;24.70;16.42;;;;;;;7.81;96.93;94668.22;2089713;28;20201;-68
2022/04/24 03:38:14;;;;;;;28.30;17.25;;;;;;;7.90;96.67;94680.47;2090374;28;20203;-68
2022/04/24 03:39:15;;;;;;;28.45;18.50;;;;;;;7.65;98.36;94681.78;2090916;28;20200;-68
2022/04/24 03:40:17;;;;;;;32.25;19.75;;;;;;;7.62;98.43;94682.03;2092780;28;20218;-68
2022/04/24 03:41:18;;;;;;;32.10;18.58;;;;;;;7.68;98.83;94685.91;2092078;28;20221;-68
2022/04/24 03:42:20;;;;;;;25.25;18.52;;;;;;;7.50;98.74;94680.50;2091415;28;20196;-68
2022/04/24 03:43:22;;;;;;;30.30;19.00;;;;;;;7.29;100.00;94681.44;2092819;28;20200;-68
2022/04/24 03:44:23;;;;;;;31.70;20.42;;;;;;;7.30;100.00;94679.63;2092693;28;20547;-68
2022/04/24 03:45:24;;;;;;;30.17;18.92;;;;;;;7.38;100.00;94679.78;2088988;28;20205;-67
2022/04/24 03:46:26;;;;;;;32.40;19.42;;;;;;;7.48;100.00;94679.81;2087760;28;20211;-68
2022/04/24 03:47:27;;;;;;;30.08;19.23;;;;;;;7.54;100.00;94676.69;2089896;28;20230;-68
2022/04/24 03:48:29;;;;;;;29.02;18.55;;;;;;;7.67;100.00;94679.06;2090819;28;20196;-68
2022/04/24 03:49:30;;;;;;;28.02;19.02;;;;;;;7.69;100.00;94683.16;2088545;28;20203;-68
2022/04/24 03:50:31;;;;;;;27.88;19.38;;;;;;;7.82;99.71;94685.53;2088451;28;20207;-67
2022/04/24 03:51:33;;;;;;;29.35;18.05;;;;;;;7.82;99.35;94682.06;2091246;28;20595;-67
2022/04/24 03:52:35;;;;;;;36.53;18.88;;;;;;;7.60;99.67;94667.50;2091126;28;20197;-68
2022/04/24 03:53:36;;;;;;;30.92;18.80;;;;;;;7.75;99.89;94686.19;2092441;28;20211;-67
2022/04/24 03:54:38;;;;;;;29.27;18.55;;;;;;;7.72;99.60;94675.09;2089545;28;20197;-67
2022/04/24 03:55:40;;;;;;;30.40;18.88;;;;;;;7.85;99.49;94687.03;2091024;28;20487;-68
2022/04/24 03:56:48;;;;;;;31.02;19.27;;;;;;;7.78;99.45;94675.50;2090557;28;20279;-67
2022/04/24 03:57:49;;;;;;;27.98;18.70;;;;;;;7.86;99.06;94680.84;2090770;28;20192;-67
2022/04/24 03:58:51;;;;;;;30.55;17.50;;;;;;;7.88;99.00;94684.16;2090696;28;20212;-67
2022/04/24 03:59:53;;;;;;;27.92;17.60;;;;;;;7.84;99.25;94686.22;2091611;28;20204;-67
2022/04/24 04:00:55;;;;;;;27.80;19.15;;;;;;;7.87;99.01;94691.13;2088985;28;20223;-67
2022/04/24 04:01:56;;;;;;;30.73;19.55;;;;;;;7.82;99.75;94692.50;2088966;28;20207;-67
2022/04/24 04:02:58;;;;;;;27.83;18.20;;;;;;;7.77;99.91;94685.09;2090624;28;20590;-67
2022/04/24 04:03:59;;;;;;;30.05;18.52;;;;;;;7.64;100.00;94680.13;2088908;28;20674;-67
2022/04/24 04:05:01;;;;;;;27.70;18.70;;;;;;;7.71;99.95;94686.47;2089527;28;20232;-67
2022/04/24 04:06:02;;;;;;;27.35;18.25;;;;;;;7.65;100.00;94687.00;2089792;28;20223;-66
2022/04/24 04:07:04;;;;;;;28.52;19.50;;;;;;;7.56;100.00;94666.94;2090304;28;20210;-67
2022/04/24 04:08:06;;;;;;;27.33;18.90;;;;;;;7.81;100.00;94698.69;2089755;28;20200;-67
2022/04/24 04:09:07;;;;;;;30.02;18.00;;;;;;;7.85;99.85;94693.06;2088973;28;20690;-66
2022/04/24 04:10:09;;;;;;;29.13;19.05;;;;;;;7.80;99.70;94697.03;2089942;28;20661;-66
2022/04/24 04:11:12;;;;;;;31.60;17.33;;;;;;;7.77;99.81;94681.69;2089984;28;20223;-66
2022/04/24 04:12:13;;;;;;;26.17;18.30;;;;;;;7.97;99.18;94696.38;2087956;28;20196;-66
2022/04/24 04:13:15;;;;;;;24.98;17.50;;;;;;;7.94;99.60;94691.44;2089194;28;20670;-66
2022/04/24 04:14:16;;;;;;;25.80;18.08;;;;;;;7.95;99.61;94690.47;2089444;28;20206;-67
2022/04/24 04:15:18;;;;;;;30.77;17.83;;;;;;;7.93;99.79;94700.22;2090903;28;20197;-66
2022/04/24 04:16:20;;;;;;;29.88;17.58;;;;;;;7.95;99.83;94692.25;2090811;28;20223;-66
2022/04/24 04:17:22;;;;;;;29.20;19.15;;;;;;;7.87;99.89;94696.34;2091046;28;20207;-66
2022/04/24 04:18:23;;;;;;;31.48;17.33;;;;;;;7.83;99.99;94696.78;2088010;28;20196;-66
2022/04/24 04:19:25;;;;;;;28.05;17.45;;;;;;;7.82;100.00;94693.34;2090577;28;20196;-66
2022/04/24 04:20:26;;;;;;;26.85;17.95;;;;;;;7.85;100.00;94692.25;2091492;28;20537;-66
2022/04/24 04:21:28;;;;;;;29.05;18.17;;;;;;;7.86;100.00;94691.28;2091008;28;20195;-66
2022/04/24 04:22:29;;;;;;;27.48;17.77;;;;;;;7.86;100.00;94694.72;2086932;28;20198;-66
2022/04/24 04:23:31;;;;;;;28.15;19.30;;;;;;;7.81;100.00;94702.09;2083645;28;20212;-66
2022/04/24 04:24:32;;;;;;;36.90;19.17;;;;;;;7.76;100.00;94693.03;2083709;28;20197;-66
2022/04/24 04:25:34;;;;;;;26.10;18.52;;;;;;;7.76;100.00;94698.25;2083295;28;20204;-66
2022/04/24 04:26:36;;;;;;;26.80;18.70;;;;;;;7.88;100.00;94694.59;2084659;28;20207;-66
2022/04/24 04:27:37;;;;;;;31.77;20.77;;;;;;;7.85;100.00;94697.47;2082529;28;20189;-66
2022/04/24 04:28:39;;;;;;;31.73;18.17;;;;;;;7.75;100.00;94692.22;2082436;28;20190;-66
2022/04/24 04:29:40;;;;;;;32.83;20.05;;;;;;;7.79;100.00;94703.22;2081669;28;20210;-66
2022/04/24 04:30:42;;;;;;;27.27;18.55;;;;;;;7.67;100.00;94690.28;2087438;28;20211;-65
2022/04/24 04:31:44;;;;;;;24.90;16.95;;;;;;;7.67;100.00;94707.72;2078306;28;20215;-66
2022/04/24 04:32:46;;;;;;;29.55;19.85;;;;;;;7.62;100.00;94713.31;2085166;28;20525;-66
2022/04/24 04:33:47;;;;;;;30.92;19.92;;;;;;;7.73;100.00;94721.03;2085736;28;20192;-66
2022/04/24 04:34:49;;;;;;;27.65;19.55;;;;;;;7.65;100.00;94723.47;2084404;28;20736;-66
2022/04/24 04:35:50;;;;;;;45.88;19.92;;;;;;;7.57;100.00;94728.53;2084583;28;20224;-66
2022/04/24 04:36:52;;;;;;;31.77;19.92;;;;;;;7.58;100.00;94727.56;2085735;28;20193;-66
2022/04/24 04:37:53;;;;;;;34.10;22.13;;;;;;;7.49;100.00;94738.78;2085096;28;20204;-66
2022/04/24 04:38:55;;;;;;;33.08;21.67;;;;;;;7.46;100.00;94739.03;2082412;28;20620;-66